NKS2920 KMCO-KFLL
Flight info
| Callsign | NKS2920 |
|---|---|
| Flight time | 0h 33m |
| Altitude | 21000 |
| Route | DDANY3 BORRD COLAT CUUDA3 |
| Aircraft | A321/M-SDE3FGHIRWY/LB1 |
Departure
| Time | 2026-05-06 19:48 |
|---|---|
| Airport | Orlando International Airport (KMCO) |
Arrival
| Time | 2026-05-06 20:21 |
|---|---|
| Airport | Fort Lauderdale Hollywood International Airport (KFLL) |
| Time | Latitude | Longitude | Altitude | Speed | Heading |
|---|---|---|---|---|---|
| 2026-05-06 19:18 | 28.43370 | -81.31491 | 96 ft | 0 kts | 326° |
| 2026-05-06 19:37 | 28.43353 | -81.31478 | 96 ft | 3 kts | 326° |
| 2026-05-06 19:37 | 28.43338 | -81.31464 | 93 ft | 4 kts | 297° |
| 2026-05-06 19:37 | 28.43328 | -81.31442 | 95 ft | 4 kts | 296° |
| 2026-05-06 19:37 | 28.43323 | -81.31430 | 94 ft | 0 kts | 296° |
| 2026-05-06 19:39 | 28.43322 | -81.31435 | 96 ft | 2 kts | 269° |
| 2026-05-06 19:40 | 28.43301 | -81.31479 | 98 ft | 9 kts | 235° |
| 2026-05-06 19:40 | 28.43269 | -81.31543 | 94 ft | 10 kts | 252° |
| 2026-05-06 19:40 | 28.43275 | -81.31626 | 94 ft | 11 kts | 281° |
| 2026-05-06 19:40 | 28.43308 | -81.31700 | 97 ft | 10 kts | 333° |
| 2026-05-06 19:41 | 28.43376 | -81.31693 | 98 ft | 11 kts | 11° |
| 2026-05-06 19:41 | 28.43470 | -81.31673 | 96 ft | 18 kts | 11° |
| 2026-05-06 19:41 | 28.43601 | -81.31641 | 98 ft | 19 kts | 12° |
| 2026-05-06 19:41 | 28.43697 | -81.31610 | 99 ft | 13 kts | 12° |
| 2026-05-06 19:42 | 28.43764 | -81.31642 | 103 ft | 10 kts | 327° |
| 2026-05-06 19:42 | 28.43820 | -81.31681 | 104 ft | 9 kts | 333° |
| 2026-05-06 19:42 | 28.43883 | -81.31688 | 105 ft | 10 kts | 8° |
| 2026-05-06 19:42 | 28.43920 | -81.31650 | 107 ft | 7 kts | 78° |
| 2026-05-06 19:43 | 28.43923 | -81.31581 | 107 ft | 13 kts | 89° |
| 2026-05-06 19:43 | 28.43926 | -81.31434 | 104 ft | 23 kts | 89° |
| 2026-05-06 19:43 | 28.43933 | -81.31253 | 107 ft | 22 kts | 86° |
| 2026-05-06 19:43 | 28.43941 | -81.31079 | 108 ft | 22 kts | 87° |
| 2026-05-06 19:44 | 28.43943 | -81.30901 | 107 ft | 23 kts | 90° |
| 2026-05-06 19:44 | 28.43934 | -81.30727 | 109 ft | 22 kts | 95° |
| 2026-05-06 19:44 | 28.43921 | -81.30545 | 106 ft | 24 kts | 94° |
| 2026-05-06 19:44 | 28.43912 | -81.30353 | 100 ft | 26 kts | 92° |
| 2026-05-06 19:45 | 28.43904 | -81.30154 | 101 ft | 26 kts | 93° |
| 2026-05-06 19:45 | 28.43882 | -81.29960 | 100 ft | 24 kts | 112° |
| 2026-05-06 19:45 | 28.43786 | -81.29839 | 95 ft | 16 kts | 150° |
| 2026-05-06 19:45 | 28.43678 | -81.29810 | 96 ft | 17 kts | 180° |
| 2026-05-06 19:46 | 28.43578 | -81.29806 | 96 ft | 9 kts | 173° |
| 2026-05-06 19:46 | 28.43550 | -81.29755 | 96 ft | 9 kts | 92° |
| 2026-05-06 19:46 | 28.43550 | -81.29683 | 97 ft | 9 kts | 89° |
| 2026-05-06 19:46 | 28.43544 | -81.29613 | 98 ft | 9 kts | 116° |
| 2026-05-06 19:47 | 28.43487 | -81.29586 | 99 ft | 14 kts | 178° |
| 2026-05-06 19:47 | 28.43201 | -81.29583 | 99 ft | 78 kts | 179° |
| 2026-05-06 19:47 | 28.42428 | -81.29575 | 97 ft | 141 kts | 179° |
| 2026-05-06 19:47 | 28.41291 | -81.29560 | 216 ft | 176 kts | 178° |
| 2026-05-06 19:48 | 28.40067 | -81.29517 | 852 ft | 177 kts | 175° |
| 2026-05-06 19:48 | 28.38841 | -81.29422 | 1524 ft | 181 kts | 170° |
| 2026-05-06 19:48 | 28.37608 | -81.28884 | 1858 ft | 202 kts | 148° |
| 2026-05-06 19:48 | 28.36388 | -81.27946 | 2318 ft | 218 kts | 147° |
| 2026-05-06 19:49 | 28.35118 | -81.26979 | 2878 ft | 220 kts | 144° |
| 2026-05-06 19:49 | 28.34036 | -81.25760 | 3619 ft | 223 kts | 133° |
| 2026-05-06 19:49 | 28.32924 | -81.24395 | 3933 ft | 247 kts | 133° |
| 2026-05-06 19:49 | 28.31794 | -81.22834 | 4379 ft | 263 kts | 119° |
| 2026-05-06 19:50 | 28.31263 | -81.20833 | 5078 ft | 270 kts | 97° |
| 2026-05-06 19:50 | 28.31051 | -81.18705 | 5818 ft | 273 kts | 96° |
| 2026-05-06 19:50 | 28.30849 | -81.16579 | 6550 ft | 276 kts | 95° |
| 2026-05-06 19:50 | 28.30642 | -81.14370 | 7255 ft | 280 kts | 95° |
| 2026-05-06 19:51 | 28.30437 | -81.12158 | 7921 ft | 284 kts | 95° |
| 2026-05-06 19:51 | 28.30232 | -81.09942 | 8620 ft | 288 kts | 95° |
| 2026-05-06 19:51 | 28.30021 | -81.07668 | 9293 ft | 292 kts | 95° |
| 2026-05-06 19:51 | 28.29804 | -81.05362 | 9999 ft | 296 kts | 95° |
| 2026-05-06 19:52 | 28.29580 | -81.02982 | 10322 ft | 314 kts | 95° |
| 2026-05-06 19:52 | 28.29341 | -81.00435 | 10470 ft | 337 kts | 95° |
| 2026-05-06 19:52 | 28.29084 | -80.97713 | 10583 ft | 357 kts | 95° |
| 2026-05-06 19:52 | 28.28809 | -80.94866 | 10954 ft | 367 kts | 95° |
| 2026-05-06 19:53 | 28.28524 | -80.91969 | 11514 ft | 371 kts | 95° |
| 2026-05-06 19:53 | 28.28237 | -80.89043 | 12093 ft | 375 kts | 94° |
| 2026-05-06 19:53 | 28.27813 | -80.86106 | 12662 ft | 381 kts | 102° |
| 2026-05-06 19:53 | 28.26921 | -80.83246 | 13245 ft | 387 kts | 110° |
| 2026-05-06 19:54 | 28.25895 | -80.80411 | 13809 ft | 391 kts | 110° |
| 2026-05-06 19:54 | 28.24857 | -80.77545 | 14325 ft | 395 kts | 110° |
| 2026-05-06 19:54 | 28.23812 | -80.74644 | 14821 ft | 399 kts | 110° |
| 2026-05-06 19:54 | 28.22753 | -80.71714 | 15306 ft | 404 kts | 111° |
| 2026-05-06 19:55 | 28.21386 | -80.68904 | 15788 ft | 411 kts | 123° |
| 2026-05-06 19:55 | 28.19562 | -80.66392 | 16237 ft | 416 kts | 134° |
| 2026-05-06 19:55 | 28.17321 | -80.64286 | 16720 ft | 421 kts | 146° |
| 2026-05-06 19:55 | 28.14876 | -80.62425 | 17190 ft | 425 kts | 146° |
| 2026-05-06 19:56 | 28.12412 | -80.60548 | 17667 ft | 429 kts | 146° |
| 2026-05-06 19:56 | 28.09926 | -80.58649 | 18132 ft | 433 kts | 146° |
| 2026-05-06 19:56 | 28.07419 | -80.56730 | 18567 ft | 437 kts | 146° |
| 2026-05-06 19:56 | 28.04896 | -80.54795 | 18987 ft | 440 kts | 146° |
| 2026-05-06 19:57 | 28.02350 | -80.52841 | 19406 ft | 444 kts | 146° |
| 2026-05-06 19:57 | 27.99782 | -80.50873 | 19798 ft | 448 kts | 146° |
| 2026-05-06 19:57 | 27.97191 | -80.48892 | 20199 ft | 451 kts | 146° |
| 2026-05-06 19:57 | 27.94579 | -80.46899 | 20592 ft | 455 kts | 147° |
| 2026-05-06 19:58 | 27.91946 | -80.44894 | 20918 ft | 458 kts | 147° |
| 2026-05-06 19:58 | 27.89269 | -80.42929 | 21007 ft | 463 kts | 148° |
| 2026-05-06 19:58 | 27.86495 | -80.40997 | 21019 ft | 473 kts | 150° |
| 2026-05-06 19:58 | 27.83656 | -80.39090 | 21029 ft | 475 kts | 150° |
| 2026-05-06 19:59 | 27.80786 | -80.37194 | 21024 ft | 483 kts | 150° |
| 2026-05-06 19:59 | 27.77848 | -80.35252 | 21028 ft | 494 kts | 150° |
| 2026-05-06 19:59 | 27.74870 | -80.33263 | 21027 ft | 501 kts | 150° |
| 2026-05-06 19:59 | 27.71879 | -80.31237 | 21016 ft | 502 kts | 149° |
| 2026-05-06 20:00 | 27.68889 | -80.29192 | 21030 ft | 503 kts | 149° |
| 2026-05-06 20:00 | 27.65902 | -80.27140 | 21023 ft | 503 kts | 149° |
| 2026-05-06 20:00 | 27.62916 | -80.25090 | 21024 ft | 503 kts | 149° |
| 2026-05-06 20:00 | 27.59925 | -80.23046 | 21027 ft | 503 kts | 149° |
| 2026-05-06 20:01 | 27.56927 | -80.21009 | 21016 ft | 503 kts | 149° |
| 2026-05-06 20:01 | 27.53927 | -80.18979 | 21013 ft | 503 kts | 150° |
| 2026-05-06 20:01 | 27.50932 | -80.16957 | 21057 ft | 503 kts | 150° |
| 2026-05-06 20:01 | 27.47928 | -80.14928 | 21097 ft | 504 kts | 149° |
| 2026-05-06 20:02 | 27.44921 | -80.12894 | 21087 ft | 504 kts | 149° |
| 2026-05-06 20:02 | 27.41915 | -80.10862 | 21085 ft | 504 kts | 149° |
| 2026-05-06 20:02 | 27.38902 | -80.08826 | 21084 ft | 504 kts | 149° |
| 2026-05-06 20:02 | 27.35898 | -80.06795 | 21083 ft | 504 kts | 149° |
| 2026-05-06 20:03 | 27.32885 | -80.04758 | 21082 ft | 505 kts | 149° |
| 2026-05-06 20:03 | 27.29879 | -80.02727 | 21082 ft | 505 kts | 149° |
| 2026-05-06 20:03 | 27.26854 | -80.00729 | 21079 ft | 504 kts | 153° |
| 2026-05-06 20:03 | 27.23687 | -79.99187 | 21080 ft | 502 kts | 162° |
| 2026-05-06 20:04 | 27.20363 | -79.97981 | 21079 ft | 502 kts | 164° |
| 2026-05-06 20:04 | 27.17039 | -79.96788 | 21076 ft | 502 kts | 164° |
| 2026-05-06 20:04 | 27.13713 | -79.95592 | 21072 ft | 501 kts | 164° |
| 2026-05-06 20:04 | 27.10392 | -79.94396 | 21058 ft | 501 kts | 163° |
| 2026-05-06 20:05 | 27.07075 | -79.93201 | 21061 ft | 501 kts | 163° |
| 2026-05-06 20:05 | 27.03769 | -79.91966 | 21060 ft | 501 kts | 162° |
| 2026-05-06 20:05 | 27.00482 | -79.90663 | 21060 ft | 501 kts | 161° |
| 2026-05-06 20:05 | 26.97210 | -79.89318 | 20788 ft | 502 kts | 161° |
| 2026-05-06 20:06 | 26.93935 | -79.87951 | 19855 ft | 501 kts | 160° |
| 2026-05-06 20:06 | 26.90712 | -79.86607 | 19265 ft | 489 kts | 160° |
| 2026-05-06 20:06 | 26.87538 | -79.85301 | 18601 ft | 484 kts | 160° |
| 2026-05-06 20:06 | 26.84395 | -79.84027 | 17894 ft | 478 kts | 160° |
| 2026-05-06 20:07 | 26.81283 | -79.82778 | 17331 ft | 472 kts | 160° |
| 2026-05-06 20:07 | 26.78201 | -79.81548 | 16758 ft | 468 kts | 160° |
| 2026-05-06 20:07 | 26.75153 | -79.80333 | 16163 ft | 463 kts | 160° |
| 2026-05-06 20:07 | 26.72087 | -79.79292 | 15561 ft | 458 kts | 169° |
| 2026-05-06 20:08 | 26.68926 | -79.79134 | 14957 ft | 454 kts | 186° |
| 2026-05-06 20:08 | 26.65877 | -79.79941 | 14333 ft | 449 kts | 200° |
| 2026-05-06 20:08 | 26.62949 | -79.81136 | 13680 ft | 446 kts | 200° |
| 2026-05-06 20:08 | 26.60046 | -79.82329 | 13012 ft | 443 kts | 201° |
| 2026-05-06 20:09 | 26.57168 | -79.83512 | 12377 ft | 439 kts | 200° |
| 2026-05-06 20:09 | 26.54323 | -79.84691 | 11788 ft | 432 kts | 201° |
| 2026-05-06 20:09 | 26.51616 | -79.85892 | 11160 ft | 403 kts | 203° |
| 2026-05-06 20:09 | 26.49119 | -79.87068 | 10557 ft | 377 kts | 204° |
| 2026-05-06 20:10 | 26.46790 | -79.88196 | 10153 ft | 350 kts | 204° |
| 2026-05-06 20:10 | 26.44670 | -79.89226 | 10056 ft | 318 kts | 204° |
| 2026-05-06 20:10 | 26.42688 | -79.90183 | 9509 ft | 306 kts | 204° |
| 2026-05-06 20:10 | 26.40751 | -79.91109 | 8826 ft | 300 kts | 204° |
| 2026-05-06 20:11 | 26.38846 | -79.92013 | 8225 ft | 294 kts | 204° |
| 2026-05-06 20:11 | 26.37038 | -79.93090 | 8029 ft | 295 kts | 211° |
| 2026-05-06 20:11 | 26.35268 | -79.94232 | 7699 ft | 293 kts | 211° |
| 2026-05-06 20:11 | 26.33510 | -79.95362 | 7369 ft | 291 kts | 211° |
| 2026-05-06 20:12 | 26.31760 | -79.96487 | 7031 ft | 290 kts | 210° |
| 2026-05-06 20:12 | 26.30023 | -79.97599 | 6737 ft | 287 kts | 210° |
| 2026-05-06 20:12 | 26.28304 | -79.98697 | 6444 ft | 284 kts | 210° |
| 2026-05-06 20:12 | 26.26598 | -79.99789 | 6109 ft | 281 kts | 210° |
| 2026-05-06 20:13 | 26.24908 | -80.00871 | 5795 ft | 279 kts | 211° |
| 2026-05-06 20:13 | 26.23239 | -80.01943 | 5496 ft | 275 kts | 211° |
| 2026-05-06 20:13 | 26.21590 | -80.03004 | 5187 ft | 272 kts | 211° |
| 2026-05-06 20:13 | 26.19971 | -80.04070 | 4919 ft | 268 kts | 215° |
| 2026-05-06 20:14 | 26.18586 | -80.05434 | 4604 ft | 265 kts | 229° |
| 2026-05-06 20:14 | 26.17564 | -80.07131 | 4234 ft | 265 kts | 244° |
| 2026-05-06 20:14 | 26.16913 | -80.09043 | 3851 ft | 265 kts | 251° |
| 2026-05-06 20:14 | 26.16333 | -80.10990 | 3519 ft | 264 kts | 251° |
| 2026-05-06 20:15 | 26.15747 | -80.12931 | 3175 ft | 265 kts | 251° |
| 2026-05-06 20:15 | 26.15201 | -80.14885 | 2819 ft | 265 kts | 258° |
| 2026-05-06 20:15 | 26.15025 | -80.16919 | 2462 ft | 265 kts | 270° |
| 2026-05-06 20:15 | 26.15045 | -80.18950 | 2279 ft | 259 kts | 270° |
| 2026-05-06 20:16 | 26.15058 | -80.20919 | 2156 ft | 250 kts | 269° |
| 2026-05-06 20:16 | 26.15067 | -80.22809 | 2051 ft | 239 kts | 269° |
| 2026-05-06 20:16 | 26.15073 | -80.24649 | 2008 ft | 233 kts | 269° |
| 2026-05-06 20:16 | 26.15058 | -80.26415 | 2004 ft | 226 kts | 263° |
| 2026-05-06 20:17 | 26.14502 | -80.27983 | 1999 ft | 217 kts | 227° |
| 2026-05-06 20:17 | 26.13326 | -80.28856 | 2014 ft | 198 kts | 192° |
| 2026-05-06 20:17 | 26.11993 | -80.28923 | 2006 ft | 190 kts | 174° |
| 2026-05-06 20:17 | 26.10686 | -80.28791 | 2011 ft | 188 kts | 171° |
| 2026-05-06 20:18 | 26.09444 | -80.28413 | 1946 ft | 186 kts | 150° |
| 2026-05-06 20:18 | 26.08451 | -80.27534 | 1834 ft | 181 kts | 128° |
| 2026-05-06 20:18 | 26.07860 | -80.26318 | 1676 ft | 177 kts | 105° |
| 2026-05-06 20:18 | 26.07739 | -80.25037 | 1500 ft | 156 kts | 89° |
| 2026-05-06 20:19 | 26.07733 | -80.23872 | 1303 ft | 146 kts | 91° |
| 2026-05-06 20:19 | 26.07727 | -80.22768 | 1113 ft | 141 kts | 91° |
| 2026-05-06 20:19 | 26.07721 | -80.21696 | 944 ft | 136 kts | 90° |
| 2026-05-06 20:19 | 26.07716 | -80.20629 | 778 ft | 139 kts | 91° |
| 2026-05-06 20:20 | 26.07706 | -80.19575 | 645 ft | 137 kts | 90° |
| 2026-05-06 20:20 | 26.07716 | -80.18511 | 447 ft | 137 kts | 91° |
| 2026-05-06 20:20 | 26.07710 | -80.17806 | 316 ft | 137 kts | 95° |
| 2026-05-06 20:20 | 26.07699 | -80.16755 | 108 ft | 135 kts | 93° |
| 2026-05-06 20:21 | 26.07689 | -80.15734 | 18 ft | 118 kts | 90° |
| 2026-05-06 20:21 | 26.07685 | -80.15010 | 16 ft | 70 kts | 90° |
| 2026-05-06 20:21 | 26.07683 | -80.14658 | 19 ft | 21 kts | 91° |
| 2026-05-06 20:21 | 26.07674 | -80.14503 | 20 ft | 19 kts | 106° |
| 2026-05-06 20:22 | 26.07603 | -80.14399 | 19 ft | 18 kts | 168° |
| 2026-05-06 20:22 | 26.07558 | -80.14509 | 17 ft | 19 kts | 274° |
| 2026-05-06 20:22 | 26.07560 | -80.14645 | 17 ft | 13 kts | 269° |
| 2026-05-06 20:22 | 26.07535 | -80.14741 | 17 ft | 14 kts | 216° |
| 2026-05-06 20:23 | 26.07450 | -80.14808 | 17 ft | 16 kts | 226° |
| 2026-05-06 20:23 | 26.07349 | -80.14854 | 16 ft | 17 kts | 180° |
| 2026-05-06 20:23 | 26.07226 | -80.14854 | 16 ft | 18 kts | 180° |
| 2026-05-06 20:23 | 26.07099 | -80.14853 | 16 ft | 18 kts | 175° |
| 2026-05-06 20:24 | 26.07001 | -80.14767 | 16 ft | 19 kts | 137° |
| 2026-05-06 20:24 | 26.06900 | -80.14670 | 16 ft | 20 kts | 143° |
| 2026-05-06 20:24 | 26.06820 | -80.14561 | 16 ft | 18 kts | 98° |
| 2026-05-06 20:24 | 26.06817 | -80.14421 | 16 ft | 19 kts | 91° |
| 2026-05-06 20:25 | 26.06817 | -80.14274 | 16 ft | 20 kts | 90° |
| 2026-05-06 20:25 | 26.06819 | -80.14132 | 16 ft | 16 kts | 76° |
| 2026-05-06 20:25 | 26.06902 | -80.14083 | 16 ft | 14 kts | 0° |
| 2026-05-06 20:25 | 26.06956 | -80.14107 | 16 ft | 7 kts | 292° |
| 2026-05-06 20:26 | 26.06960 | -80.14137 | 16 ft | 4 kts | 279° |
| 2026-05-06 20:26 | 26.06961 | -80.14143 | 16 ft | 0 kts | 279° |